createdAt,value
2022-09-02T00:05:22.551Z,15.70
2022-09-02T00:12:06.719Z,15.70
2022-09-02T00:18:50.027Z,15.80
2022-09-02T00:25:32.686Z,15.80
2022-09-02T00:32:15.114Z,15.50
2022-09-02T00:38:57.586Z,15.50
2022-09-02T00:45:40.014Z,15.40
2022-09-02T00:52:29.412Z,15.20
2022-09-02T00:59:20.213Z,15.30
2022-09-02T01:06:03.314Z,15.30
2022-09-02T01:12:45.800Z,15.20
2022-09-02T01:19:42.742Z,15.20
2022-09-02T01:26:25.094Z,15.40
2022-09-02T01:33:08.228Z,14.60
2022-09-02T01:39:52.342Z,14.60
2022-09-02T01:46:36.510Z,14.40
2022-09-02T01:53:19.398Z,14.10
2022-09-02T02:00:04.728Z,14.40
2022-09-02T02:06:55.337Z,14.00
2022-09-02T02:13:38.451Z,14.20
2022-09-02T02:20:21.859Z,14.00
2022-09-02T02:27:05.048Z,14.00
2022-09-02T02:33:47.598Z,14.00
2022-09-02T02:40:30.211Z,14.00
2022-09-02T02:47:12.750Z,13.90
2022-09-02T02:53:58.906Z,14.00
2022-09-02T03:00:43.280Z,13.90
2022-09-02T03:07:25.764Z,13.90
2022-09-02T03:14:08.474Z,13.70
2022-09-02T03:20:51.592Z,13.70
2022-09-02T03:27:34.543Z,13.60
2022-09-02T03:34:18.095Z,13.20
2022-09-02T03:41:00.558Z,13.30
2022-09-02T03:47:47.181Z,13.10
2022-09-02T03:54:29.660Z,12.90
2022-09-02T04:01:17.927Z,13.20
2022-09-02T04:08:01.106Z,13.10
2022-09-02T04:14:44.439Z,13.20
2022-09-02T04:21:27.097Z,13.40
2022-09-02T04:28:10.105Z,13.00
2022-09-02T04:34:52.566Z,12.90
2022-09-02T04:41:36.790Z,13.00
2022-09-02T04:48:23.864Z,12.80
2022-09-02T04:55:07.084Z,12.80
2022-09-02T05:01:50.420Z,12.80
2022-09-02T05:08:37.046Z,12.80
2022-09-02T05:15:21.017Z,12.80
2022-09-02T05:22:05.142Z,13.00
2022-09-02T05:28:52.101Z,13.20
2022-09-02T05:35:39.107Z,13.30
2022-09-02T05:42:26.740Z,13.40
2022-09-02T05:49:09.321Z,13.40
2022-09-02T05:55:59.231Z,13.70
2022-09-02T06:02:42.890Z,14.50
2022-09-02T06:09:44.698Z,17.90
2022-09-02T06:16:27.624Z,20.80
2022-09-02T06:23:10.330Z,23.70
2022-09-02T06:29:56.283Z,26.10
2022-09-02T06:36:43.279Z,27.90
2022-09-02T06:43:28.185Z,27.90
2022-09-02T06:50:31.267Z,28.90
2022-09-02T06:57:14.468Z,30.20
2022-09-02T07:04:16.353Z,30.20
2022-09-02T07:10:59.154Z,30.50
2022-09-02T07:17:41.966Z,31.60
2022-09-02T07:24:28.497Z,29.90
2022-09-02T07:31:14.267Z,30.60
2022-09-02T07:37:57.079Z,29.40
2022-09-02T07:44:39.605Z,29.40
2022-09-02T07:51:23.334Z,29.90
2022-09-02T07:58:10.903Z,30.30
2022-09-02T08:04:56.280Z,30.90
2022-09-02T08:11:40.763Z,29.80
2022-09-02T08:18:23.554Z,30.70
2022-09-02T08:25:06.449Z,31.60
2022-09-02T08:31:50.847Z,32.10
2022-09-02T08:38:36.763Z,31.10
2022-09-02T08:45:32.771Z,32.40
2022-09-02T08:52:42.202Z,32.90
2022-09-02T08:59:27.201Z,31.40
2022-09-02T09:06:30.666Z,30.70
2022-09-02T09:13:40.746Z,32.60
2022-09-02T09:20:44.079Z,34.60
2022-09-02T09:27:27.124Z,33.10
2022-09-02T09:34:12.663Z,31.80
2022-09-02T09:41:12.109Z,31.40
2022-09-02T09:48:16.656Z,31.80
2022-09-02T09:55:22.818Z,31.90
2022-09-02T10:02:20.979Z,32.40
2022-09-02T10:09:18.367Z,31.10
2022-09-02T10:16:28.631Z,29.30
2022-09-02T10:23:25.753Z,30.70
2022-09-02T10:30:21.610Z,30.10
2022-09-02T10:37:19.991Z,29.20
2022-09-02T10:44:36.689Z,29.30
2022-09-02T10:51:43.775Z,29.50
2022-09-02T10:59:07.907Z,27.10
2022-09-02T11:06:07.507Z,26.00
2022-09-02T11:13:03.288Z,25.40
2022-09-02T11:20:01.379Z,24.80
2022-09-02T11:26:53.753Z,24.50
2022-09-02T11:41:36.061Z,24.40
2022-09-02T11:48:47.902Z,24.30
2022-09-02T11:55:39.202Z,24.50
2022-09-02T12:02:45.748Z,24.90
2022-09-02T12:09:49.434Z,24.90
2022-09-02T12:17:03.515Z,24.60
2022-09-02T12:23:49.225Z,24.50
2022-09-02T12:31:00.904Z,24.60
2022-09-02T12:37:55.092Z,24.70
2022-09-02T12:45:04.629Z,24.90
2022-09-02T12:52:01.439Z,24.50
2022-09-02T12:58:53.303Z,24.70
2022-09-02T13:05:56.480Z,25.10
2022-09-02T13:13:17.089Z,24.90
2022-09-02T13:20:43.519Z,25.10
2022-09-02T13:27:58.074Z,24.80
2022-09-02T13:34:45.387Z,25.00
2022-09-02T13:41:32.738Z,25.00
2022-09-02T13:48:22.647Z,24.80
2022-09-02T13:55:06.063Z,24.80
2022-09-02T14:01:48.657Z,24.80
2022-09-02T14:08:31.850Z,24.90
2022-09-02T14:15:17.543Z,25.00
2022-09-02T14:21:59.895Z,25.10
2022-09-02T14:28:42.287Z,25.00
2022-09-02T14:35:24.749Z,24.90
2022-09-02T14:42:07.155Z,25.00
2022-09-02T14:49:11.270Z,25.30
2022-09-02T14:55:56.856Z,25.10
2022-09-02T15:02:42.517Z,25.10
2022-09-02T15:09:24.986Z,25.30
2022-09-02T15:16:07.374Z,25.40
2022-09-02T15:22:52.280Z,25.40
2022-09-02T15:29:35.071Z,25.30
2022-09-02T15:36:18.417Z,25.40
2022-09-02T15:43:00.769Z,25.20
2022-09-02T15:49:43.170Z,25.30
2022-09-02T15:56:27.640Z,25.10
2022-09-02T16:03:10.063Z,24.90
2022-09-02T16:09:52.442Z,24.90
2022-09-02T16:16:35.902Z,24.70
2022-09-02T16:23:18.286Z,24.50
2022-09-02T16:30:00.629Z,24.40
2022-09-02T16:36:46.083Z,24.50
2022-09-02T16:43:31.621Z,24.30
2022-09-02T16:50:14.029Z,24.20
2022-09-02T16:56:56.351Z,24.20
2022-09-02T17:03:39.660Z,24.30
2022-09-02T17:10:22.013Z,24.30
2022-09-02T17:17:04.486Z,24.30
2022-09-02T17:23:47.870Z,24.20
2022-09-02T17:30:30.868Z,24.00
2022-09-02T17:37:13.329Z,23.80
2022-09-02T17:43:55.733Z,23.50
2022-09-02T17:50:38.516Z,23.40
2022-09-02T17:57:43.054Z,23.20
2022-09-02T18:04:43.222Z,23.00
2022-09-02T18:11:25.585Z,22.80
2022-09-02T18:18:11.850Z,22.60
2022-09-02T18:25:36.343Z,22.40
2022-09-02T18:32:40.719Z,22.20
2022-09-02T18:40:03.300Z,22.00
2022-09-02T18:47:01.823Z,21.80
2022-09-02T18:53:48.441Z,21.70
2022-09-02T19:00:36.724Z,21.60
2022-09-02T19:07:38.948Z,21.40
2022-09-02T19:14:29.130Z,21.30
2022-09-02T19:21:17.588Z,21.30
2022-09-02T19:28:02.539Z,21.30
2022-09-02T19:34:45.752Z,21.20
2022-09-02T19:41:28.280Z,21.20
2022-09-02T19:48:11.312Z,21.20
2022-09-02T19:54:54.351Z,21.20
2022-09-02T20:01:37.897Z,21.10
2022-09-02T20:08:22.383Z,20.90
2022-09-02T20:15:06.670Z,20.80
2022-09-02T20:21:49.358Z,20.70
2022-09-02T20:28:45.134Z,20.50
2022-09-02T20:36:00.282Z,20.30
2022-09-02T20:43:08.338Z,20.20
2022-09-02T20:50:05.145Z,19.90
2022-09-02T20:57:15.161Z,20.30
2022-09-02T21:04:24.202Z,19.60
2022-09-02T21:11:13.944Z,19.60
2022-09-02T21:18:21.261Z,19.50
2022-09-02T21:25:09.794Z,19.40
2022-09-02T21:32:15.435Z,19.40
2022-09-02T21:39:07.060Z,19.40
2022-09-02T21:46:10.769Z,19.50
2022-09-02T21:53:23.352Z,19.70
2022-09-02T22:00:16.793Z,19.60
2022-09-02T22:07:18.992Z,19.50
2022-09-02T22:14:18.791Z,19.40
2022-09-02T22:28:47.123Z,19.00
2022-09-02T22:35:34.137Z,18.80
2022-09-02T22:42:27.031Z,18.70
2022-09-02T22:49:49.215Z,18.60
2022-09-02T22:57:28.749Z,18.60
2022-09-02T23:04:38.713Z,18.40
2022-09-02T23:11:30.607Z,18.10
2022-09-02T23:18:24.370Z,18.00
2022-09-02T23:25:40.852Z,17.70
2022-09-02T23:32:44.134Z,17.60
2022-09-02T23:39:29.592Z,17.80
2022-09-02T23:46:46.178Z,17.60
2022-09-02T23:53:40.273Z,17.70
